sensor_id;sensor_type;location;lat;lon;timestamp;P1;durP1;ratioP1;P2;durP2;ratioP2
297;SDS011;133;49.626;9.680;2023-03-23T00:02:25;3.57;;;3.27;;
297;SDS011;133;49.626;9.680;2023-03-23T00:04:54;5.50;;;2.70;;
297;SDS011;133;49.626;9.680;2023-03-23T00:07:21;3.63;;;3.07;;
297;SDS011;133;49.626;9.680;2023-03-23T00:09:50;2.63;;;2.40;;
297;SDS011;133;49.626;9.680;2023-03-23T00:12:19;6.00;;;3.00;;
297;SDS011;133;49.626;9.680;2023-03-23T00:15:01;3.10;;;2.97;;
297;SDS011;133;49.626;9.680;2023-03-23T00:17:28;2.90;;;2.70;;
297;SDS011;133;49.626;9.680;2023-03-23T00:19:54;2.83;;;2.63;;
297;SDS011;133;49.626;9.680;2023-03-23T00:22:20;5.43;;;3.00;;
297;SDS011;133;49.626;9.680;2023-03-23T00:24:50;3.53;;;2.87;;
297;SDS011;133;49.626;9.680;2023-03-23T00:27:16;4.10;;;3.10;;
297;SDS011;133;49.626;9.680;2023-03-23T00:29:42;2.90;;;2.70;;
297;SDS011;133;49.626;9.680;2023-03-23T00:32:10;3.03;;;2.83;;
297;SDS011;133;49.626;9.680;2023-03-23T00:34:37;3.07;;;2.87;;
297;SDS011;133;49.626;9.680;2023-03-23T00:37:03;3.27;;;2.83;;
297;SDS011;133;49.626;9.680;2023-03-23T00:39:29;4.80;;;2.73;;
297;SDS011;133;49.626;9.680;2023-03-23T00:41:54;2.70;;;2.50;;
297;SDS011;133;49.626;9.680;2023-03-23T00:44:26;3.20;;;3.00;;
297;SDS011;133;49.626;9.680;2023-03-23T00:46:53;3.00;;;2.90;;
297;SDS011;133;49.626;9.680;2023-03-23T00:49:21;4.80;;;2.93;;
297;SDS011;133;49.626;9.680;2023-03-23T00:51:51;2.70;;;2.50;;
297;SDS011;133;49.626;9.680;2023-03-23T00:54:18;3.10;;;2.90;;
297;SDS011;133;49.626;9.680;2023-03-23T00:56:43;2.87;;;2.70;;
297;SDS011;133;49.626;9.680;2023-03-23T00:59:09;3.00;;;2.80;;
297;SDS011;133;49.626;9.680;2023-03-23T01:01:35;3.57;;;3.20;;
297;SDS011;133;49.626;9.680;2023-03-23T01:04:01;3.30;;;2.80;;
297;SDS011;133;49.626;9.680;2023-03-23T01:06:33;3.70;;;2.90;;
297;SDS011;133;49.626;9.680;2023-03-23T01:09:04;3.43;;;2.50;;
297;SDS011;133;49.626;9.680;2023-03-23T01:11:31;3.10;;;2.50;;
297;SDS011;133;49.626;9.680;2023-03-23T01:13:57;2.63;;;2.43;;
297;SDS011;133;49.626;9.680;2023-03-23T01:16:23;3.77;;;3.03;;
297;SDS011;133;49.626;9.680;2023-03-23T01:18:49;3.77;;;2.43;;
297;SDS011;133;49.626;9.680;2023-03-23T01:21:16;2.77;;;2.57;;
297;SDS011;133;49.626;9.680;2023-03-23T01:23:44;4.13;;;2.73;;
297;SDS011;133;49.626;9.680;2023-03-23T01:26:11;2.50;;;2.30;;
297;SDS011;133;49.626;9.680;2023-03-23T01:28:40;2.60;;;2.40;;
297;SDS011;133;49.626;9.680;2023-03-23T01:31:08;3.07;;;2.30;;
297;SDS011;133;49.626;9.680;2023-03-23T01:33:38;4.17;;;2.60;;
297;SDS011;133;49.626;9.680;2023-03-23T01:36:05;2.57;;;2.37;;
297;SDS011;133;49.626;9.680;2023-03-23T01:38:36;2.60;;;2.30;;
297;SDS011;133;49.626;9.680;2023-03-23T01:41:02;3.33;;;2.30;;
297;SDS011;133;49.626;9.680;2023-03-23T01:43:28;2.90;;;2.40;;
297;SDS011;133;49.626;9.680;2023-03-23T01:45:54;3.00;;;2.80;;
297;SDS011;133;49.626;9.680;2023-03-23T01:48:22;2.67;;;2.33;;
297;SDS011;133;49.626;9.680;2023-03-23T01:50:52;2.73;;;2.30;;
297;SDS011;133;49.626;9.680;2023-03-23T01:53:21;4.30;;;2.33;;
297;SDS011;133;49.626;9.680;2023-03-23T01:55:49;2.27;;;2.10;;
297;SDS011;133;49.626;9.680;2023-03-23T01:58:23;2.83;;;2.50;;
297;SDS011;133;49.626;9.680;2023-03-23T02:00:53;3.23;;;2.20;;
297;SDS011;133;49.626;9.680;2023-03-23T02:03:20;2.93;;;2.40;;
297;SDS011;133;49.626;9.680;2023-03-23T02:05:48;2.80;;;2.60;;
297;SDS011;133;49.626;9.680;2023-03-23T02:08:15;4.37;;;2.43;;
297;SDS011;133;49.626;9.680;2023-03-23T02:10:43;3.53;;;2.30;;
297;SDS011;133;49.626;9.680;2023-03-23T02:13:09;2.33;;;2.17;;
297;SDS011;133;49.626;9.680;2023-03-23T02:15:39;3.00;;;2.10;;
297;SDS011;133;49.626;9.680;2023-03-23T02:21:16;3.10;;;2.30;;
297;SDS011;133;49.626;9.680;2023-03-23T02:24:01;2.57;;;2.37;;
297;SDS011;133;49.626;9.680;2023-03-23T02:27:11;2.30;;;2.10;;
297;SDS011;133;49.626;9.680;2023-03-23T02:29:43;2.40;;;2.20;;
297;SDS011;133;49.626;9.680;2023-03-23T02:35:18;2.53;;;2.33;;
297;SDS011;133;49.626;9.680;2023-03-23T02:40:36;2.50;;;2.30;;
297;SDS011;133;49.626;9.680;2023-03-23T02:43:03;2.57;;;2.20;;
297;SDS011;133;49.626;9.680;2023-03-23T02:45:33;2.23;;;2.03;;
297;SDS011;133;49.626;9.680;2023-03-23T02:48:02;2.50;;;2.20;;
297;SDS011;133;49.626;9.680;2023-03-23T02:50:30;2.50;;;2.30;;
297;SDS011;133;49.626;9.680;2023-03-23T02:52:58;2.33;;;2.13;;
297;SDS011;133;49.626;9.680;2023-03-23T02:55:26;2.10;;;1.97;;
297;SDS011;133;49.626;9.680;2023-03-23T02:57:55;2.70;;;2.50;;
297;SDS011;133;49.626;9.680;2023-03-23T03:00:21;3.03;;;2.20;;
297;SDS011;133;49.626;9.680;2023-03-23T03:02:48;2.60;;;2.23;;
297;SDS011;133;49.626;9.680;2023-03-23T03:08:24;2.67;;;2.47;;
297;SDS011;133;49.626;9.680;2023-03-23T03:10:59;2.07;;;1.93;;
297;SDS011;133;49.626;9.680;2023-03-23T03:13:37;2.60;;;2.20;;
297;SDS011;133;49.626;9.680;2023-03-23T03:18:57;2.37;;;2.17;;
297;SDS011;133;49.626;9.680;2023-03-23T03:21:33;2.80;;;2.13;;
297;SDS011;133;49.626;9.680;2023-03-23T03:24:02;2.50;;;2.30;;
297;SDS011;133;49.626;9.680;2023-03-23T03:26:30;2.40;;;2.20;;
297;SDS011;133;49.626;9.680;2023-03-23T03:28:59;2.50;;;2.30;;
297;SDS011;133;49.626;9.680;2023-03-23T03:31:28;4.53;;;2.20;;
297;SDS011;133;49.626;9.680;2023-03-23T03:33:56;2.27;;;2.07;;
297;SDS011;133;49.626;9.680;2023-03-23T03:36:24;2.30;;;2.10;;
297;SDS011;133;49.626;9.680;2023-03-23T03:38:53;2.40;;;2.13;;
297;SDS011;133;49.626;9.680;2023-03-23T03:41:22;2.30;;;2.10;;
297;SDS011;133;49.626;9.680;2023-03-23T03:43:47;2.40;;;2.20;;
297;SDS011;133;49.626;9.680;2023-03-23T03:46:13;2.30;;;2.10;;
297;SDS011;133;49.626;9.680;2023-03-23T03:48:39;2.00;;;1.90;;
297;SDS011;133;49.626;9.680;2023-03-23T03:51:04;2.27;;;2.03;;
297;SDS011;133;49.626;9.680;2023-03-23T03:53:30;2.70;;;2.43;;
297;SDS011;133;49.626;9.680;2023-03-23T03:55:56;2.63;;;2.43;;
297;SDS011;133;49.626;9.680;2023-03-23T03:58:25;2.40;;;2.20;;
297;SDS011;133;49.626;9.680;2023-03-23T04:00:56;2.40;;;2.20;;
297;SDS011;133;49.626;9.680;2023-03-23T04:03:24;2.30;;;2.10;;
297;SDS011;133;49.626;9.680;2023-03-23T04:05:51;2.00;;;1.90;;
297;SDS011;133;49.626;9.680;2023-03-23T04:08:17;2.37;;;2.17;;
297;SDS011;133;49.626;9.680;2023-03-23T04:10:43;2.50;;;2.30;;
297;SDS011;133;49.626;9.680;2023-03-23T04:13:09;2.40;;;2.20;;
297;SDS011;133;49.626;9.680;2023-03-23T04:15:35;2.30;;;2.10;;
297;SDS011;133;49.626;9.680;2023-03-23T04:18:00;2.53;;;2.33;;
297;SDS011;133;49.626;9.680;2023-03-23T04:20:26;2.20;;;2.00;;
297;SDS011;133;49.626;9.680;2023-03-23T04:22:52;2.00;;;1.90;;
297;SDS011;133;49.626;9.680;2023-03-23T04:25:20;2.20;;;2.00;;
297;SDS011;133;49.626;9.680;2023-03-23T04:27:49;4.30;;;2.27;;
297;SDS011;133;49.626;9.680;2023-03-23T04:30:20;3.70;;;2.40;;
297;SDS011;133;49.626;9.680;2023-03-23T04:32:47;2.27;;;2.07;;
297;SDS011;133;49.626;9.680;2023-03-23T04:35:15;2.40;;;2.20;;
297;SDS011;133;49.626;9.680;2023-03-23T04:37:43;2.50;;;2.07;;
297;SDS011;133;49.626;9.680;2023-03-23T04:40:09;2.40;;;2.20;;
297;SDS011;133;49.626;9.680;2023-03-23T04:42:39;2.90;;;2.17;;
297;SDS011;133;49.626;9.680;2023-03-23T04:45:16;2.40;;;2.20;;
297;SDS011;133;49.626;9.680;2023-03-23T04:47:46;2.40;;;2.20;;
297;SDS011;133;49.626;9.680;2023-03-23T04:50:22;2.70;;;2.50;;
297;SDS011;133;49.626;9.680;2023-03-23T04:52:50;3.33;;;2.53;;
297;SDS011;133;49.626;9.680;2023-03-23T04:55:16;2.50;;;2.30;;
297;SDS011;133;49.626;9.680;2023-03-23T04:57:42;2.47;;;2.30;;
297;SDS011;133;49.626;9.680;2023-03-23T05:00:09;2.43;;;2.27;;
297;SDS011;133;49.626;9.680;2023-03-23T05:02:40;2.40;;;2.20;;
297;SDS011;133;49.626;9.680;2023-03-23T05:05:07;2.77;;;2.20;;
297;SDS011;133;49.626;9.680;2023-03-23T05:07:33;2.97;;;2.33;;
297;SDS011;133;49.626;9.680;2023-03-23T05:09:59;2.43;;;2.23;;
297;SDS011;133;49.626;9.680;2023-03-23T05:12:25;2.90;;;2.70;;
297;SDS011;133;49.626;9.680;2023-03-23T05:14:51;2.50;;;2.30;;
297;SDS011;133;49.626;9.680;2023-03-23T05:17:17;2.30;;;2.10;;
297;SDS011;133;49.626;9.680;2023-03-23T05:19:43;2.47;;;2.27;;
297;SDS011;133;49.626;9.680;2023-03-23T05:22:12;3.03;;;2.43;;
297;SDS011;133;49.626;9.680;2023-03-23T05:24:41;5.23;;;2.30;;
297;SDS011;133;49.626;9.680;2023-03-23T05:27:08;2.60;;;2.40;;
297;SDS011;133;49.626;9.680;2023-03-23T05:29:36;2.40;;;2.20;;
297;SDS011;133;49.626;9.680;2023-03-23T05:32:05;2.97;;;2.70;;
297;SDS011;133;49.626;9.680;2023-03-23T05:34:32;2.87;;;2.70;;
297;SDS011;133;49.626;9.680;2023-03-23T05:37:01;4.40;;;3.00;;
297;SDS011;133;49.626;9.680;2023-03-23T05:39:28;2.93;;;2.70;;
297;SDS011;133;49.626;9.680;2023-03-23T05:41:54;2.93;;;2.50;;
297;SDS011;133;49.626;9.680;2023-03-23T05:44:20;2.90;;;2.60;;
297;SDS011;133;49.626;9.680;2023-03-23T05:46:46;2.67;;;2.47;;
297;SDS011;133;49.626;9.680;2023-03-23T05:49:13;4.23;;;2.70;;
297;SDS011;133;49.626;9.680;2023-03-23T05:51:41;2.80;;;2.60;;
297;SDS011;133;49.626;9.680;2023-03-23T05:54:07;2.77;;;2.47;;
297;SDS011;133;49.626;9.680;2023-03-23T05:56:33;2.57;;;2.33;;
297;SDS011;133;49.626;9.680;2023-03-23T05:58:59;2.63;;;2.43;;
297;SDS011;133;49.626;9.680;2023-03-23T06:01:25;3.17;;;2.97;;
297;SDS011;133;49.626;9.680;2023-03-23T06:03:52;4.90;;;2.77;;
297;SDS011;133;49.626;9.680;2023-03-23T06:06:19;3.00;;;2.80;;
297;SDS011;133;49.626;9.680;2023-03-23T06:08:45;2.83;;;2.63;;
297;SDS011;133;49.626;9.680;2023-03-23T06:11:13;3.00;;;2.80;;
297;SDS011;133;49.626;9.680;2023-03-23T06:13:39;2.80;;;2.60;;
297;SDS011;133;49.626;9.680;2023-03-23T06:16:05;3.03;;;2.70;;
297;SDS011;133;49.626;9.680;2023-03-23T06:18:31;3.30;;;3.10;;
297;SDS011;133;49.626;9.680;2023-03-23T06:20:58;2.73;;;2.50;;
297;SDS011;133;49.626;9.680;2023-03-23T06:23:25;3.10;;;2.90;;
297;SDS011;133;49.626;9.680;2023-03-23T06:25:58;3.40;;;3.30;;
297;SDS011;133;49.626;9.680;2023-03-23T06:28:25;3.00;;;2.80;;
297;SDS011;133;49.626;9.680;2023-03-23T06:30:51;3.07;;;2.90;;
297;SDS011;133;49.626;9.680;2023-03-23T06:33:17;2.80;;;2.60;;
297;SDS011;133;49.626;9.680;2023-03-23T06:35:44;3.27;;;3.10;;
297;SDS011;133;49.626;9.680;2023-03-23T06:38:09;4.90;;;3.00;;
297;SDS011;133;49.626;9.680;2023-03-23T06:40:35;3.43;;;2.77;;
297;SDS011;133;49.626;9.680;2023-03-23T06:43:02;3.70;;;3.57;;
297;SDS011;133;49.626;9.680;2023-03-23T06:45:28;3.03;;;2.70;;
297;SDS011;133;49.626;9.680;2023-03-23T06:47:55;2.90;;;2.77;;
297;SDS011;133;49.626;9.680;2023-03-23T06:50:21;2.50;;;2.30;;
297;SDS011;133;49.626;9.680;2023-03-23T06:52:47;2.97;;;2.77;;
297;SDS011;133;49.626;9.680;2023-03-23T06:55:14;4.23;;;2.63;;
297;SDS011;133;49.626;9.680;2023-03-23T06:57:42;3.90;;;2.70;;
297;SDS011;133;49.626;9.680;2023-03-23T07:00:08;2.80;;;2.70;;
297;SDS011;133;49.626;9.680;2023-03-23T07:02:37;2.80;;;2.60;;
297;SDS011;133;49.626;9.680;2023-03-23T07:05:03;2.80;;;2.40;;
297;SDS011;133;49.626;9.680;2023-03-23T07:07:29;2.80;;;2.60;;
297;SDS011;133;49.626;9.680;2023-03-23T07:09:55;4.23;;;2.20;;
297;SDS011;133;49.626;9.680;2023-03-23T07:12:21;2.30;;;2.10;;
297;SDS011;133;49.626;9.680;2023-03-23T07:14:47;2.87;;;2.33;;
297;SDS011;133;49.626;9.680;2023-03-23T07:17:13;2.47;;;2.30;;
297;SDS011;133;49.626;9.680;2023-03-23T07:19:39;3.17;;;2.17;;
297;SDS011;133;49.626;9.680;2023-03-23T07:22:05;3.87;;;2.20;;
297;SDS011;133;49.626;9.680;2023-03-23T07:24:32;2.53;;;2.37;;
297;SDS011;133;49.626;9.680;2023-03-23T07:26:58;2.50;;;2.30;;
297;SDS011;133;49.626;9.680;2023-03-23T07:29:24;2.50;;;2.30;;
297;SDS011;133;49.626;9.680;2023-03-23T07:31:50;2.20;;;2.00;;
297;SDS011;133;49.626;9.680;2023-03-23T07:34:17;4.93;;;3.10;;
297;SDS011;133;49.626;9.680;2023-03-23T07:36:44;3.20;;;2.40;;
297;SDS011;133;49.626;9.680;2023-03-23T07:39:10;3.50;;;2.40;;
297;SDS011;133;49.626;9.680;2023-03-23T07:41:37;2.50;;;2.30;;
297;SDS011;133;49.626;9.680;2023-03-23T07:44:02;2.87;;;2.40;;
297;SDS011;133;49.626;9.680;2023-03-23T07:46:29;3.50;;;2.70;;
297;SDS011;133;49.626;9.680;2023-03-23T07:48:54;10.30;;;2.57;;
297;SDS011;133;49.626;9.680;2023-03-23T07:51:21;3.10;;;2.27;;
297;SDS011;133;49.626;9.680;2023-03-23T07:53:47;2.53;;;2.33;;
297;SDS011;133;49.626;9.680;2023-03-23T07:56:15;2.30;;;2.10;;
297;SDS011;133;49.626;9.680;2023-03-23T07:58:44;3.63;;;2.93;;
297;SDS011;133;49.626;9.680;2023-03-23T08:01:10;2.47;;;2.07;;
297;SDS011;133;49.626;9.680;2023-03-23T08:03:36;2.43;;;2.23;;
297;SDS011;133;49.626;9.680;2023-03-23T08:06:02;2.47;;;2.30;;
297;SDS011;133;49.626;9.680;2023-03-23T08:08:29;3.20;;;2.50;;
297;SDS011;133;49.626;9.680;2023-03-23T08:10:55;2.53;;;2.13;;
297;SDS011;133;49.626;9.680;2023-03-23T08:13:21;2.60;;;2.40;;
297;SDS011;133;49.626;9.680;2023-03-23T08:15:46;4.50;;;2.60;;
297;SDS011;133;49.626;9.680;2023-03-23T08:18:13;3.47;;;3.03;;
297;SDS011;133;49.626;9.680;2023-03-23T08:20:39;3.43;;;3.23;;
297;SDS011;133;49.626;9.680;2023-03-23T08:23:05;10.40;;;3.20;;
297;SDS011;133;49.626;9.680;2023-03-23T08:25:31;2.80;;;2.50;;
297;SDS011;133;49.626;9.680;2023-03-23T08:27:57;2.53;;;2.33;;
297;SDS011;133;49.626;9.680;2023-03-23T08:30:26;3.13;;;2.90;;
297;SDS011;133;49.626;9.680;2023-03-23T08:32:53;4.03;;;2.97;;
297;SDS011;133;49.626;9.680;2023-03-23T08:35:19;3.43;;;3.00;;
297;SDS011;133;49.626;9.680;2023-03-23T08:37:46;2.53;;;2.43;;
297;SDS011;133;49.626;9.680;2023-03-23T08:40:16;3.47;;;2.80;;
297;SDS011;133;49.626;9.680;2023-03-23T08:42:44;2.70;;;2.50;;
297;SDS011;133;49.626;9.680;2023-03-23T08:45:12;3.10;;;2.43;;
297;SDS011;133;49.626;9.680;2023-03-23T08:47:41;3.00;;;2.60;;
297;SDS011;133;49.626;9.680;2023-03-23T08:50:07;2.70;;;2.37;;
297;SDS011;133;49.626;9.680;2023-03-23T08:52:36;4.90;;;3.07;;
297;SDS011;133;49.626;9.680;2023-03-23T08:55:02;3.80;;;2.97;;
297;SDS011;133;49.626;9.680;2023-03-23T08:57:28;12.40;;;3.03;;
297;SDS011;133;49.626;9.680;2023-03-23T08:59:54;3.70;;;3.10;;
297;SDS011;133;49.626;9.680;2023-03-23T09:02:24;3.10;;;2.77;;
297;SDS011;133;49.626;9.680;2023-03-23T09:04:51;3.00;;;2.80;;
297;SDS011;133;49.626;9.680;2023-03-23T09:07:18;2.90;;;2.70;;
297;SDS011;133;49.626;9.680;2023-03-23T09:09:44;5.03;;;4.00;;
297;SDS011;133;49.626;9.680;2023-03-23T09:12:10;4.60;;;3.77;;
297;SDS011;133;49.626;9.680;2023-03-23T09:14:37;3.10;;;2.90;;
297;SDS011;133;49.626;9.680;2023-03-23T09:17:04;4.47;;;3.53;;
297;SDS011;133;49.626;9.680;2023-03-23T09:19:30;4.50;;;3.00;;
297;SDS011;133;49.626;9.680;2023-03-23T09:21:58;3.03;;;2.67;;
297;SDS011;133;49.626;9.680;2023-03-23T09:24:24;3.80;;;3.00;;
297;SDS011;133;49.626;9.680;2023-03-23T09:26:50;3.47;;;3.27;;
297;SDS011;133;49.626;9.680;2023-03-23T09:29:15;4.33;;;3.10;;
297;SDS011;133;49.626;9.680;2023-03-23T09:31:41;4.60;;;3.37;;
297;SDS011;133;49.626;9.680;2023-03-23T09:34:08;3.43;;;3.10;;
297;SDS011;133;49.626;9.680;2023-03-23T09:36:37;3.10;;;2.70;;
297;SDS011;133;49.626;9.680;2023-03-23T09:39:04;5.90;;;4.13;;
297;SDS011;133;49.626;9.680;2023-03-23T09:44:30;2.53;;;2.33;;
297;SDS011;133;49.626;9.680;2023-03-23T09:54:44;2.60;;;2.40;;
297;SDS011;133;49.626;9.680;2023-03-23T09:59:55;2.40;;;2.07;;
297;SDS011;133;49.626;9.680;2023-03-23T10:05:44;2.70;;;2.07;;
297;SDS011;133;49.626;9.680;2023-03-23T10:08:16;2.53;;;2.33;;
297;SDS011;133;49.626;9.680;2023-03-23T10:16:19;2.30;;;2.10;;
297;SDS011;133;49.626;9.680;2023-03-23T10:19:03;2.40;;;2.20;;
297;SDS011;133;49.626;9.680;2023-03-23T10:21:33;2.60;;;2.00;;
297;SDS011;133;49.626;9.680;2023-03-23T10:24:03;2.33;;;1.97;;
297;SDS011;133;49.626;9.680;2023-03-23T10:26:42;3.37;;;2.53;;
297;SDS011;133;49.626;9.680;2023-03-23T10:29:24;3.53;;;2.40;;
297;SDS011;133;49.626;9.680;2023-03-23T10:31:58;2.30;;;2.10;;
297;SDS011;133;49.626;9.680;2023-03-23T10:39:53;2.90;;;2.33;;
297;SDS011;133;49.626;9.680;2023-03-23T10:44:49;2.27;;;2.07;;
297;SDS011;133;49.626;9.680;2023-03-23T10:47:15;2.60;;;2.40;;
297;SDS011;133;49.626;9.680;2023-03-23T10:57:34;2.90;;;2.13;;
297;SDS011;133;49.626;9.680;2023-03-23T11:03:02;3.63;;;2.27;;
297;SDS011;133;49.626;9.680;2023-03-23T11:05:53;2.60;;;2.40;;
297;SDS011;133;49.626;9.680;2023-03-23T11:08:25;2.57;;;2.37;;
297;SDS011;133;49.626;9.680;2023-03-23T11:11:08;2.67;;;2.10;;
297;SDS011;133;49.626;9.680;2023-03-23T11:13:44;2.60;;;2.40;;
297;SDS011;133;49.626;9.680;2023-03-23T11:16:31;4.63;;;2.90;;
297;SDS011;133;49.626;9.680;2023-03-23T11:18:59;2.77;;;2.57;;
297;SDS011;133;49.626;9.680;2023-03-23T11:21:36;3.03;;;2.83;;
297;SDS011;133;49.626;9.680;2023-03-23T11:24:04;4.73;;;2.87;;
297;SDS011;133;49.626;9.680;2023-03-23T11:26:31;3.40;;;2.73;;
297;SDS011;133;49.626;9.680;2023-03-23T11:29:15;4.30;;;2.97;;
297;SDS011;133;49.626;9.680;2023-03-23T11:31:47;3.23;;;2.80;;
297;SDS011;133;49.626;9.680;2023-03-23T11:34:32;3.00;;;2.80;;
297;SDS011;133;49.626;9.680;2023-03-23T11:37:05;3.40;;;3.20;;
297;SDS011;133;49.626;9.680;2023-03-23T11:39:57;2.60;;;2.40;;
297;SDS011;133;49.626;9.680;2023-03-23T11:42:26;2.87;;;2.67;;
297;SDS011;133;49.626;9.680;2023-03-23T11:50:29;4.07;;;3.10;;
297;SDS011;133;49.626;9.680;2023-03-23T11:53:13;2.97;;;2.77;;
297;SDS011;133;49.626;9.680;2023-03-23T11:58:17;2.60;;;2.40;;
297;SDS011;133;49.626;9.680;2023-03-23T12:12:15;3.90;;;2.60;;
297;SDS011;133;49.626;9.680;2023-03-23T12:17:51;2.53;;;2.30;;
297;SDS011;133;49.626;9.680;2023-03-23T12:20:31;3.07;;;2.77;;
297;SDS011;133;49.626;9.680;2023-03-23T12:23:20;3.70;;;3.00;;
297;SDS011;133;49.626;9.680;2023-03-23T12:25:51;3.30;;;3.10;;
297;SDS011;133;49.626;9.680;2023-03-23T12:31:30;4.07;;;3.00;;
297;SDS011;133;49.626;9.680;2023-03-23T12:36:42;3.40;;;2.90;;
297;SDS011;133;49.626;9.680;2023-03-23T12:44:47;3.47;;;3.33;;
297;SDS011;133;49.626;9.680;2023-03-23T12:53:06;3.27;;;3.07;;
297;SDS011;133;49.626;9.680;2023-03-23T12:55:50;3.13;;;2.87;;
297;SDS011;133;49.626;9.680;2023-03-23T12:58:32;4.13;;;3.00;;
297;SDS011;133;49.626;9.680;2023-03-23T13:03:55;6.23;;;2.80;;
297;SDS011;133;49.626;9.680;2023-03-23T13:07:00;6.20;;;2.80;;
297;SDS011;133;49.626;9.680;2023-03-23T13:11:55;3.73;;;2.70;;
297;SDS011;133;49.626;9.680;2023-03-23T13:17:03;5.23;;;2.40;;
297;SDS011;133;49.626;9.680;2023-03-23T13:25:27;2.70;;;2.50;;
297;SDS011;133;49.626;9.680;2023-03-23T13:28:04;2.77;;;2.57;;
297;SDS011;133;49.626;9.680;2023-03-23T13:30:30;2.93;;;2.77;;
297;SDS011;133;49.626;9.680;2023-03-23T13:33:03;2.70;;;2.50;;
297;SDS011;133;49.626;9.680;2023-03-23T13:35:34;4.03;;;2.50;;
297;SDS011;133;49.626;9.680;2023-03-23T13:38:10;2.60;;;2.40;;
297;SDS011;133;49.626;9.680;2023-03-23T13:40:43;2.33;;;2.13;;
297;SDS011;133;49.626;9.680;2023-03-23T13:43:09;2.30;;;2.10;;
297;SDS011;133;49.626;9.680;2023-03-23T13:45:42;2.80;;;2.60;;
297;SDS011;133;49.626;9.680;2023-03-23T13:53:27;2.30;;;2.10;;
297;SDS011;133;49.626;9.680;2023-03-23T13:56:04;2.30;;;2.10;;
297;SDS011;133;49.626;9.680;2023-03-23T13:59:27;2.20;;;2.00;;
297;SDS011;133;49.626;9.680;2023-03-23T14:01:56;3.20;;;2.70;;
297;SDS011;133;49.626;9.680;2023-03-23T14:04:42;2.80;;;2.30;;
297;SDS011;133;49.626;9.680;2023-03-23T14:07:15;2.50;;;2.30;;
297;SDS011;133;49.626;9.680;2023-03-23T14:09:44;5.90;;;2.67;;
297;SDS011;133;49.626;9.680;2023-03-23T14:14:42;3.97;;;2.83;;
297;SDS011;133;49.626;9.680;2023-03-23T14:17:18;2.40;;;2.20;;
297;SDS011;133;49.626;9.680;2023-03-23T14:19:51;2.40;;;2.20;;
297;SDS011;133;49.626;9.680;2023-03-23T14:24:59;3.83;;;2.67;;
297;SDS011;133;49.626;9.680;2023-03-23T14:27:26;2.57;;;2.37;;
297;SDS011;133;49.626;9.680;2023-03-23T14:30:14;2.70;;;2.50;;
297;SDS011;133;49.626;9.680;2023-03-23T14:32:40;2.57;;;2.37;;
297;SDS011;133;49.626;9.680;2023-03-23T14:35:07;3.20;;;2.60;;
297;SDS011;133;49.626;9.680;2023-03-23T14:37:38;2.77;;;2.60;;
297;SDS011;133;49.626;9.680;2023-03-23T14:40:03;2.27;;;2.07;;
297;SDS011;133;49.626;9.680;2023-03-23T14:42:33;2.60;;;2.40;;
297;SDS011;133;49.626;9.680;2023-03-23T14:45:01;2.63;;;2.40;;
297;SDS011;133;49.626;9.680;2023-03-23T14:47:33;2.30;;;2.10;;
297;SDS011;133;49.626;9.680;2023-03-23T14:50:02;3.47;;;2.40;;
297;SDS011;133;49.626;9.680;2023-03-23T14:52:33;2.60;;;2.40;;
297;SDS011;133;49.626;9.680;2023-03-23T14:55:10;2.57;;;2.13;;
297;SDS011;133;49.626;9.680;2023-03-23T14:57:42;2.40;;;2.20;;
297;SDS011;133;49.626;9.680;2023-03-23T15:00:25;2.70;;;2.50;;
297;SDS011;133;49.626;9.680;2023-03-23T15:02:57;2.50;;;2.30;;
297;SDS011;133;49.626;9.680;2023-03-23T15:05:27;3.20;;;2.30;;
297;SDS011;133;49.626;9.680;2023-03-23T15:08:01;2.27;;;2.07;;
297;SDS011;133;49.626;9.680;2023-03-23T15:10:30;2.70;;;2.13;;
297;SDS011;133;49.626;9.680;2023-03-23T15:12:56;2.30;;;2.20;;
297;SDS011;133;49.626;9.680;2023-03-23T15:15:32;4.23;;;1.87;;
297;SDS011;133;49.626;9.680;2023-03-23T15:18:00;2.70;;;2.23;;
297;SDS011;133;49.626;9.680;2023-03-23T15:20:28;2.30;;;1.93;;
297;SDS011;133;49.626;9.680;2023-03-23T15:23:14;3.33;;;2.03;;
297;SDS011;133;49.626;9.680;2023-03-23T15:25:47;3.23;;;2.00;;
297;SDS011;133;49.626;9.680;2023-03-23T15:28:19;2.83;;;2.37;;
297;SDS011;133;49.626;9.680;2023-03-23T15:30:47;8.07;;;2.70;;
297;SDS011;133;49.626;9.680;2023-03-23T15:33:15;3.00;;;2.50;;
297;SDS011;133;49.626;9.680;2023-03-23T15:35:48;2.43;;;2.27;;
297;SDS011;133;49.626;9.680;2023-03-23T15:38:22;3.20;;;2.80;;
297;SDS011;133;49.626;9.680;2023-03-23T15:40:51;3.10;;;2.90;;
297;SDS011;133;49.626;9.680;2023-03-23T15:48:21;3.30;;;2.80;;
297;SDS011;133;49.626;9.680;2023-03-23T15:50:47;3.23;;;3.03;;
297;SDS011;133;49.626;9.680;2023-03-23T15:53:26;3.13;;;2.93;;
297;SDS011;133;49.626;9.680;2023-03-23T15:56:00;3.33;;;2.43;;
297;SDS011;133;49.626;9.680;2023-03-23T15:58:28;2.97;;;2.77;;
297;SDS011;133;49.626;9.680;2023-03-23T16:00:54;2.93;;;2.73;;
297;SDS011;133;49.626;9.680;2023-03-23T16:03:37;2.73;;;2.60;;
297;SDS011;133;49.626;9.680;2023-03-23T16:06:10;3.37;;;3.17;;
297;SDS011;133;49.626;9.680;2023-03-23T16:08:38;7.23;;;5.50;;
297;SDS011;133;49.626;9.680;2023-03-23T16:11:05;3.00;;;2.80;;
297;SDS011;133;49.626;9.680;2023-03-23T16:13:34;3.47;;;2.93;;
297;SDS011;133;49.626;9.680;2023-03-23T16:15:59;2.80;;;2.60;;
297;SDS011;133;49.626;9.680;2023-03-23T16:18:25;3.20;;;2.97;;
297;SDS011;133;49.626;9.680;2023-03-23T16:20:51;4.13;;;3.10;;
297;SDS011;133;49.626;9.680;2023-03-23T16:23:16;3.37;;;3.03;;
297;SDS011;133;49.626;9.680;2023-03-23T16:25:42;2.80;;;2.60;;
297;SDS011;133;49.626;9.680;2023-03-23T16:28:11;3.20;;;3.00;;
297;SDS011;133;49.626;9.680;2023-03-23T16:30:38;2.87;;;2.67;;
297;SDS011;133;49.626;9.680;2023-03-23T16:33:06;3.33;;;3.13;;
297;SDS011;133;49.626;9.680;2023-03-23T16:35:32;3.87;;;3.70;;
297;SDS011;133;49.626;9.680;2023-03-23T16:37:58;3.70;;;3.50;;
297;SDS011;133;49.626;9.680;2023-03-23T16:40:23;4.43;;;4.13;;
297;SDS011;133;49.626;9.680;2023-03-23T16:42:51;5.00;;;4.20;;
297;SDS011;133;49.626;9.680;2023-03-23T16:45:16;3.77;;;3.57;;
297;SDS011;133;49.626;9.680;2023-03-23T16:47:43;3.77;;;3.40;;
297;SDS011;133;49.626;9.680;2023-03-23T16:50:10;4.37;;;4.10;;
297;SDS011;133;49.626;9.680;2023-03-23T16:52:41;3.30;;;3.10;;
297;SDS011;133;49.626;9.680;2023-03-23T16:55:08;3.30;;;3.10;;
297;SDS011;133;49.626;9.680;2023-03-23T16:57:35;3.20;;;2.90;;
297;SDS011;133;49.626;9.680;2023-03-23T17:00:07;2.80;;;2.63;;
297;SDS011;133;49.626;9.680;2023-03-23T17:02:35;3.40;;;2.83;;
297;SDS011;133;49.626;9.680;2023-03-23T17:05:02;5.40;;;3.60;;
297;SDS011;133;49.626;9.680;2023-03-23T17:07:27;5.53;;;3.63;;
297;SDS011;133;49.626;9.680;2023-03-23T17:09:53;3.60;;;3.33;;
297;SDS011;133;49.626;9.680;2023-03-23T17:12:19;3.70;;;3.40;;
297;SDS011;133;49.626;9.680;2023-03-23T17:14:45;3.43;;;3.23;;
297;SDS011;133;49.626;9.680;2023-03-23T17:17:11;5.53;;;3.40;;
297;SDS011;133;49.626;9.680;2023-03-23T17:19:37;4.77;;;3.67;;
297;SDS011;133;49.626;9.680;2023-03-23T17:22:03;8.27;;;4.47;;
297;SDS011;133;49.626;9.680;2023-03-23T17:24:28;8.57;;;6.10;;
297;SDS011;133;49.626;9.680;2023-03-23T17:26:54;6.77;;;5.00;;
297;SDS011;133;49.626;9.680;2023-03-23T17:29:20;8.93;;;5.93;;
297;SDS011;133;49.626;9.680;2023-03-23T17:31:46;12.20;;;7.10;;
297;SDS011;133;49.626;9.680;2023-03-23T17:34:13;11.73;;;7.00;;
297;SDS011;133;49.626;9.680;2023-03-23T17:36:38;10.23;;;7.63;;
297;SDS011;133;49.626;9.680;2023-03-23T17:39:04;7.53;;;5.80;;
297;SDS011;133;49.626;9.680;2023-03-23T17:41:30;6.50;;;4.83;;
297;SDS011;133;49.626;9.680;2023-03-23T17:43:56;4.67;;;4.40;;
297;SDS011;133;49.626;9.680;2023-03-23T17:46:22;6.60;;;5.47;;
297;SDS011;133;49.626;9.680;2023-03-23T17:48:47;7.20;;;3.97;;
297;SDS011;133;49.626;9.680;2023-03-23T17:51:13;3.77;;;3.60;;
297;SDS011;133;49.626;9.680;2023-03-23T17:53:39;4.30;;;3.53;;
297;SDS011;133;49.626;9.680;2023-03-23T17:56:05;3.40;;;3.20;;
297;SDS011;133;49.626;9.680;2023-03-23T17:58:31;5.17;;;3.67;;
297;SDS011;133;49.626;9.680;2023-03-23T18:00:57;4.03;;;3.30;;
297;SDS011;133;49.626;9.680;2023-03-23T18:03:23;6.20;;;3.47;;